2017-05-26 - 03:25:00

SR: 0320 - SS: 1933

RWY: 07


OBSERVATION: n/a

RVR Mean 1 min: (Runway Visual Range)
A: P2000 - B: P2000 - C: P2000
RVR Mean 10 min:
A: 1800 - B: P2000 - C: 1300
WARNING: n/a
W25: 130-150(140-01kt) 01kt-02kt
W07: 140-260(160-01kt) 00kt-01kt
OTHER: n/a

QFE: (tats�chlicher Luftdruck) 1017.8 hPa = 30.03 inHg
QNH:(Luftdruck auf Meeresh�he) 1023.7 hPa = 30.20 inHg
Temperatur: 9.9 �C
Dew point(Taupunkt): 9.6 �C

METAR:  00974 SADL31 EDDG 260320 METAR EDDG 260320Z VRB01KT 4800 R07/0700VP2000U BCFG MIFG BR NSC 10/10 Q1023 BECMG 8000= 
METAR (aus weather.noaa.gov):
2017/05/26 03:20 EDDG 260320Z VRB01KT 4800 R07/0700VP2000U BCFG MIFG BR NSC 10/10 Q1023 BECMG 8000

TAF (aus weather.noaa.gov):
2017/05/25 18:27 TAF EDDG 251700Z 2518/2618 36008KT 9999 FEW040 BECMG 2518/2521 VRB02KT PROB40 TEMPO 2604/2607 2500 MIFG BECMG 2610/2613 02007KT